createdAt,value
2022-10-14T00:00:50.758Z,100.00
2022-10-14T00:03:18.845Z,100.00
2022-10-14T00:05:46.915Z,100.00
2022-10-14T00:08:16.264Z,100.00
2022-10-14T00:10:44.407Z,100.00
2022-10-14T00:13:12.440Z,100.00
2022-10-14T00:15:41.375Z,100.00
2022-10-14T00:18:10.162Z,100.00
2022-10-14T00:20:38.142Z,100.00
2022-10-14T00:23:06.101Z,100.00
2022-10-14T00:25:39.283Z,100.00
2022-10-14T00:28:07.337Z,100.00
2022-10-14T00:30:35.265Z,100.00
2022-10-14T00:33:03.377Z,100.00
2022-10-14T00:35:32.359Z,100.00
2022-10-14T00:38:00.709Z,100.00
2022-10-14T00:40:28.732Z,100.00
2022-10-14T00:42:57.964Z,100.00
2022-10-14T00:45:27.218Z,100.00
2022-10-14T00:47:55.230Z,100.00
2022-10-14T00:50:23.222Z,100.00
2022-10-14T00:52:51.904Z,100.00
2022-10-14T00:55:20.760Z,100.00
2022-10-14T00:57:48.632Z,100.00
2022-10-14T01:00:20.196Z,100.00
2022-10-14T01:02:50.307Z,100.00
2022-10-14T01:05:20.341Z,100.00
2022-10-14T01:08:00.795Z,100.00
2022-10-14T01:10:38.808Z,100.00
2022-10-14T01:13:18.845Z,100.00
2022-10-14T01:15:56.685Z,100.00
2022-10-14T01:18:44.223Z,100.00
2022-10-14T01:21:19.097Z,100.00
2022-10-14T01:24:29.177Z,100.00
2022-10-14T01:27:20.934Z,100.00
2022-10-14T01:30:12.226Z,100.00
2022-10-14T01:32:50.180Z,100.00
2022-10-14T01:35:28.905Z,100.00
2022-10-14T01:38:00.919Z,100.00
2022-10-14T01:40:34.385Z,100.00
2022-10-14T01:43:05.237Z,100.00
2022-10-14T01:45:37.887Z,100.00
2022-10-14T01:48:07.499Z,100.00
2022-10-14T01:50:37.884Z,100.00
2022-10-14T01:53:09.306Z,100.00
2022-10-14T01:55:41.274Z,100.00
2022-10-14T01:58:11.160Z,100.00
2022-10-14T02:00:40.399Z,100.00
2022-10-14T02:03:08.292Z,100.00
2022-10-14T02:05:39.877Z,100.00
2022-10-14T02:08:13.181Z,100.00
2022-10-14T02:11:05.674Z,100.00
2022-10-14T02:13:46.063Z,100.00
2022-10-14T02:16:25.169Z,100.00
2022-10-14T02:19:01.130Z,100.00
2022-10-14T02:21:35.615Z,100.00
2022-10-14T02:24:08.657Z,100.00
2022-10-14T02:26:38.155Z,100.00
2022-10-14T02:29:07.172Z,100.00
2022-10-14T02:31:39.366Z,100.00
2022-10-14T02:34:11.591Z,100.00
2022-10-14T02:36:41.925Z,100.00
2022-10-14T02:39:14.105Z,100.00
2022-10-14T02:41:42.614Z,100.00
2022-10-14T02:44:10.469Z,100.00
2022-10-14T02:46:40.696Z,100.00
2022-10-14T02:49:08.902Z,100.00
2022-10-14T02:51:36.817Z,100.00
2022-10-14T02:54:04.918Z,100.00
2022-10-14T02:56:32.897Z,100.00
2022-10-14T02:59:00.852Z,100.00
2022-10-14T03:01:29.980Z,100.00
2022-10-14T03:04:01.009Z,100.00
2022-10-14T03:06:29.025Z,100.00
2022-10-14T03:08:56.904Z,100.00
2022-10-14T03:11:24.910Z,100.00
2022-10-14T03:13:52.835Z,100.00
2022-10-14T03:16:20.666Z,100.00
2022-10-14T03:18:48.712Z,100.00
2022-10-14T03:21:18.103Z,100.00
2022-10-14T03:23:45.938Z,100.00
2022-10-14T03:26:14.273Z,100.00
2022-10-14T03:28:42.423Z,100.00
2022-10-14T03:31:10.302Z,100.00
2022-10-14T03:33:38.399Z,100.00
2022-10-14T03:36:06.630Z,100.00
2022-10-14T03:38:35.941Z,100.00
2022-10-14T03:41:03.996Z,100.00
2022-10-14T03:43:32.129Z,100.00
2022-10-14T03:45:59.964Z,100.00
2022-10-14T03:48:27.973Z,100.00
2022-10-14T03:50:55.891Z,100.00
2022-10-14T03:53:23.718Z,100.00
2022-10-14T03:55:53.288Z,100.00
2022-10-14T03:58:21.252Z,100.00
2022-10-14T04:00:49.174Z,100.00
2022-10-14T04:03:17.212Z,100.00
2022-10-14T04:05:45.215Z,100.00
2022-10-14T04:08:13.065Z,100.00
2022-10-14T04:10:40.994Z,100.00
2022-10-14T04:13:10.329Z,100.00
2022-10-14T04:15:40.018Z,100.00
2022-10-14T04:18:07.962Z,100.00
2022-10-14T04:20:35.870Z,100.00
2022-10-14T04:23:03.713Z,100.00
2022-10-14T04:25:31.765Z,100.00
2022-10-14T04:27:59.733Z,100.00
2022-10-14T04:30:29.017Z,100.00
2022-10-14T04:32:57.017Z,100.00
2022-10-14T04:35:25.030Z,100.00
2022-10-14T04:37:52.898Z,100.00
2022-10-14T04:40:25.795Z,100.00
2022-10-14T04:42:57.367Z,100.00
2022-10-14T04:45:26.446Z,100.00
2022-10-14T04:47:55.724Z,100.00
2022-10-14T04:50:23.594Z,100.00
2022-10-14T04:52:51.759Z,100.00
2022-10-14T04:55:19.587Z,100.00
2022-10-14T04:57:47.566Z,100.00
2022-10-14T05:00:16.879Z,100.00
2022-10-14T05:02:44.827Z,100.00
2022-10-14T05:05:14.960Z,100.00
2022-10-14T05:07:43.418Z,100.00
2022-10-14T05:10:11.465Z,100.00
2022-10-14T05:12:40.193Z,100.00
2022-10-14T05:15:08.791Z,100.00
2022-10-14T05:17:37.717Z,100.00
2022-10-14T05:20:06.409Z,100.00
2022-10-14T05:22:35.789Z,100.00
2022-10-14T05:25:03.678Z,100.00
2022-10-14T05:27:31.622Z,100.00
2022-10-14T05:29:59.628Z,100.00
2022-10-14T05:32:27.497Z,100.00
2022-10-14T05:34:55.360Z,100.00
2022-10-14T05:37:23.413Z,100.00
2022-10-14T05:39:52.626Z,100.00
2022-10-14T05:42:20.843Z,100.00
2022-10-14T05:44:48.998Z,100.00
2022-10-14T05:47:16.826Z,100.00
2022-10-14T05:49:44.658Z,100.00
2022-10-14T05:52:12.758Z,100.00
2022-10-14T05:54:40.599Z,100.00
2022-10-14T05:57:09.877Z,100.00
2022-10-14T05:59:38.081Z,100.00
2022-10-14T06:02:05.940Z,100.00
2022-10-14T06:04:33.873Z,100.00
2022-10-14T06:07:01.955Z,100.00
2022-10-14T06:09:32.049Z,100.00
2022-10-14T06:11:59.926Z,100.00
2022-10-14T06:14:29.483Z,100.00
2022-10-14T06:16:57.412Z,100.00
2022-10-14T06:19:25.359Z,100.00
2022-10-14T06:21:53.545Z,100.00
2022-10-14T06:24:21.366Z,100.00
2022-10-14T06:26:49.548Z,100.00
2022-10-14T06:29:18.170Z,100.00
2022-10-14T06:31:47.436Z,100.00
2022-10-14T06:34:15.243Z,100.00
2022-10-14T06:36:43.891Z,100.00
2022-10-14T06:39:12.014Z,100.00
2022-10-14T06:41:39.883Z,100.00
2022-10-14T06:44:07.885Z,100.00
2022-10-14T06:46:35.692Z,100.00
2022-10-14T06:49:04.957Z,100.00
2022-10-14T06:51:32.935Z,100.00
2022-10-14T06:54:00.802Z,100.00
2022-10-14T06:56:28.705Z,100.00
2022-10-14T06:58:57.091Z,100.00
2022-10-14T07:01:25.103Z,100.00
2022-10-14T07:03:55.885Z,100.00
2022-10-14T07:06:26.305Z,100.00
2022-10-14T07:08:54.460Z,100.00
2022-10-14T07:11:22.293Z,100.00
2022-10-14T07:13:50.319Z,100.00
2022-10-14T07:16:18.161Z,100.00
2022-10-14T07:18:46.069Z,100.00
2022-10-14T07:21:14.319Z,100.00
2022-10-14T07:23:43.508Z,100.00
2022-10-14T07:26:11.423Z,100.00
2022-10-14T07:28:39.691Z,100.00
2022-10-14T07:31:09.720Z,100.00
2022-10-14T07:33:39.162Z,100.00
2022-10-14T07:36:10.199Z,100.00
2022-10-14T07:38:38.644Z,100.00
2022-10-14T07:41:17.002Z,97.56
2022-10-14T07:43:45.535Z,95.51
2022-10-14T07:46:14.823Z,94.13
2022-10-14T07:48:56.839Z,94.20
2022-10-14T07:51:26.007Z,92.74
2022-10-14T07:53:54.454Z,89.79
2022-10-14T07:56:24.272Z,88.06
2022-10-14T07:58:52.644Z,86.14
2022-10-14T08:01:20.867Z,85.69
2022-10-14T08:03:49.921Z,83.91
2022-10-14T08:06:18.391Z,82.20
2022-10-14T08:08:46.833Z,81.75
2022-10-14T08:11:17.272Z,80.87
2022-10-14T08:13:47.371Z,80.90
2022-10-14T08:16:17.942Z,81.58
2022-10-14T08:18:46.994Z,80.09
2022-10-14T08:21:16.019Z,81.26
2022-10-14T08:23:44.189Z,80.85
2022-10-14T08:26:23.678Z,78.06
2022-10-14T08:28:53.287Z,77.50
2022-10-14T08:31:22.276Z,75.38
2022-10-14T08:33:50.682Z,76.81
2022-10-14T08:36:19.600Z,75.77
2022-10-14T08:38:47.721Z,74.81
2022-10-14T08:41:27.251Z,72.86
2022-10-14T08:44:11.513Z,72.33
2022-10-14T08:46:48.066Z,72.92
2022-10-14T08:49:26.083Z,74.12
2022-10-14T08:51:59.907Z,72.91
2022-10-14T08:54:36.110Z,69.88
2022-10-14T08:57:05.359Z,71.29
2022-10-14T08:59:41.262Z,69.15
2022-10-14T09:02:22.871Z,69.14
2022-10-14T09:04:51.360Z,70.23
2022-10-14T09:07:21.164Z,68.41
2022-10-14T09:09:52.398Z,66.38
2022-10-14T09:12:25.385Z,68.45
2022-10-14T09:15:04.483Z,69.50
2022-10-14T09:17:38.319Z,69.64
2022-10-14T09:20:18.122Z,71.20
2022-10-14T09:22:48.400Z,71.90
2022-10-14T09:25:17.824Z,72.96
2022-10-14T09:30:18.271Z,73.07
2022-10-14T09:32:49.829Z,73.39
2022-10-14T09:35:24.617Z,75.02
2022-10-14T09:37:53.219Z,74.28
2022-10-14T09:40:29.902Z,73.62
2022-10-14T09:43:01.868Z,74.06
2022-10-14T09:45:47.102Z,73.77
2022-10-14T09:48:18.631Z,73.90
2022-10-14T09:50:51.932Z,74.96
2022-10-14T09:53:26.584Z,76.35
2022-10-14T09:55:56.818Z,75.84
2022-10-14T09:58:31.273Z,74.49
2022-10-14T10:01:01.974Z,74.26
2022-10-14T10:03:33.906Z,71.70
2022-10-14T10:06:05.511Z,69.17
2022-10-14T10:08:35.010Z,69.38
2022-10-14T10:11:07.010Z,68.46
2022-10-14T10:13:39.564Z,66.82
2022-10-14T10:16:20.610Z,64.00
2022-10-14T10:18:48.928Z,66.72
2022-10-14T10:21:20.131Z,64.83
2022-10-14T10:23:53.972Z,62.45
2022-10-14T10:26:26.068Z,61.76
2022-10-14T10:28:58.856Z,60.61
2022-10-14T10:31:58.090Z,59.37
2022-10-14T10:34:54.895Z,59.17
2022-10-14T10:37:28.746Z,58.39
2022-10-14T10:40:11.741Z,58.47
2022-10-14T10:42:51.531Z,57.82
2022-10-14T10:45:35.583Z,56.70
2022-10-14T10:48:16.492Z,56.39
2022-10-14T10:50:49.553Z,57.00
2022-10-14T10:53:33.680Z,55.70
2022-10-14T10:56:13.969Z,54.67
2022-10-14T10:58:49.791Z,54.84
2022-10-14T11:01:36.955Z,54.95
2022-10-14T11:04:23.191Z,55.54
2022-10-14T11:07:17.463Z,55.22
2022-10-14T11:10:15.620Z,55.26
2022-10-14T11:12:54.852Z,56.86
2022-10-14T11:15:38.840Z,58.63
2022-10-14T11:18:12.988Z,58.34
2022-10-14T11:21:01.750Z,58.37
2022-10-14T11:23:54.659Z,58.60
2022-10-14T11:29:19.406Z,58.63
2022-10-14T11:31:54.855Z,59.83
2022-10-14T11:34:34.693Z,60.64
2022-10-14T11:37:11.375Z,60.77
2022-10-14T11:39:43.762Z,60.03
2022-10-14T11:42:25.102Z,60.13
2022-10-14T11:45:09.394Z,60.75
2022-10-14T11:47:41.780Z,61.16
2022-10-14T11:50:17.848Z,62.32
2022-10-14T11:52:56.110Z,62.77
2022-10-14T11:55:25.539Z,61.75
2022-10-14T11:57:58.304Z,61.30
2022-10-14T12:01:03.511Z,60.99
2022-10-14T12:03:46.735Z,61.13
2022-10-14T12:06:20.244Z,61.04
2022-10-14T12:08:55.597Z,60.77
2022-10-14T12:11:30.877Z,59.86
2022-10-14T12:14:07.350Z,58.86
2022-10-14T12:16:35.316Z,58.35
2022-10-14T12:19:03.427Z,58.83
2022-10-14T12:21:36.642Z,59.17
2022-10-14T12:24:10.064Z,59.14
2022-10-14T12:26:50.366Z,58.80
2022-10-14T12:29:21.653Z,58.84
2022-10-14T12:31:52.909Z,58.77
2022-10-14T12:34:34.802Z,58.89
2022-10-14T12:37:43.191Z,58.71
2022-10-14T12:40:27.740Z,58.71
2022-10-14T12:43:17.021Z,58.46
2022-10-14T12:45:52.120Z,58.51
2022-10-14T12:48:23.550Z,57.84
2022-10-14T12:51:08.981Z,56.96
2022-10-14T12:53:39.209Z,56.53
2022-10-14T12:56:08.801Z,56.09
2022-10-14T12:58:40.111Z,55.15
2022-10-14T13:01:17.851Z,54.58
2022-10-14T13:03:48.643Z,54.48
2022-10-14T13:06:36.395Z,54.66
2022-10-14T13:09:35.915Z,55.13
2022-10-14T13:12:43.987Z,55.57
2022-10-14T13:15:48.710Z,56.14
2022-10-14T13:18:49.297Z,57.11
2022-10-14T13:21:54.209Z,58.15
2022-10-14T13:24:28.739Z,58.11
2022-10-14T13:27:08.896Z,57.37
2022-10-14T13:29:53.985Z,56.47
2022-10-14T13:32:31.561Z,55.20
2022-10-14T13:35:12.588Z,54.05
2022-10-14T13:37:45.946Z,54.36
2022-10-14T13:40:22.762Z,54.42
2022-10-14T13:42:53.299Z,54.26
2022-10-14T13:45:25.325Z,55.68
2022-10-14T13:47:55.387Z,56.42
2022-10-14T13:50:27.013Z,56.15
2022-10-14T13:52:58.170Z,55.53
2022-10-14T13:55:28.531Z,55.88
2022-10-14T13:58:13.268Z,56.57
2022-10-14T14:00:46.894Z,57.37
2022-10-14T14:03:24.393Z,58.44
2022-10-14T14:05:53.714Z,58.92
2022-10-14T14:08:42.247Z,59.98
2022-10-14T14:11:19.261Z,61.17
2022-10-14T14:13:57.529Z,61.35
2022-10-14T14:16:33.313Z,61.30
2022-10-14T14:19:08.891Z,60.58
2022-10-14T14:21:38.019Z,60.24
2022-10-14T14:24:16.766Z,60.43
2022-10-14T14:26:45.663Z,61.06
2022-10-14T14:29:20.262Z,61.12
2022-10-14T14:34:40.652Z,61.79
2022-10-14T14:39:58.934Z,62.45
2022-10-14T14:42:29.292Z,62.60
2022-10-14T14:45:02.469Z,62.95
2022-10-14T14:47:31.903Z,63.19
2022-10-14T14:50:29.915Z,63.54
2022-10-14T14:52:52.570Z,63.76
2022-10-14T14:55:38.427Z,64.32
2022-10-14T14:58:15.246Z,64.62
2022-10-14T15:00:46.686Z,65.32
2022-10-14T15:03:14.788Z,65.79
2022-10-14T15:05:51.004Z,66.17
2022-10-14T15:08:23.887Z,66.67
2022-10-14T15:10:53.987Z,66.83
2022-10-14T15:13:32.234Z,67.65
2022-10-14T15:16:00.605Z,67.86
2022-10-14T15:18:30.475Z,68.42
2022-10-14T15:21:19.058Z,69.19
2022-10-14T15:24:03.221Z,69.37
2022-10-14T15:26:34.563Z,69.41
2022-10-14T15:29:13.301Z,69.91
2022-10-14T15:31:42.898Z,69.94
2022-10-14T15:34:18.641Z,70.48
2022-10-14T15:36:51.112Z,70.63
2022-10-14T15:39:19.582Z,71.02
2022-10-14T15:41:47.520Z,71.34
2022-10-14T15:44:15.955Z,71.42
2022-10-14T15:47:03.457Z,71.39
2022-10-14T15:49:33.797Z,71.52
2022-10-14T15:52:03.272Z,71.72
2022-10-14T15:54:31.156Z,72.06
2022-10-14T15:56:59.609Z,72.22
2022-10-14T15:59:27.694Z,72.47
2022-10-14T16:01:56.007Z,72.62
2022-10-14T16:04:28.032Z,73.11
2022-10-14T16:06:58.037Z,73.22
2022-10-14T16:09:28.750Z,73.53
2022-10-14T16:11:59.560Z,73.27
2022-10-14T16:14:28.139Z,73.93
2022-10-14T16:16:56.440Z,74.21
2022-10-14T16:19:24.700Z,74.66
2022-10-14T16:21:52.559Z,74.40
2022-10-14T16:24:22.376Z,74.97
2022-10-14T16:26:51.747Z,75.07
2022-10-14T16:29:20.431Z,75.77
2022-10-14T16:31:50.223Z,75.89
2022-10-14T16:34:18.851Z,75.93
2022-10-14T16:36:47.068Z,76.56
2022-10-14T16:39:15.068Z,76.44
2022-10-14T16:41:43.068Z,76.08
2022-10-14T16:44:24.814Z,76.25
2022-10-14T16:47:11.235Z,76.54
2022-10-14T16:49:40.060Z,76.42
2022-10-14T16:52:08.707Z,76.95
2022-10-14T16:54:36.647Z,77.38
2022-10-14T16:57:04.816Z,77.68
2022-10-14T16:59:34.321Z,77.84
2022-10-14T17:02:02.178Z,78.04
2022-10-14T17:04:30.145Z,78.23
2022-10-14T17:06:58.105Z,78.29
2022-10-14T17:09:26.044Z,78.73
2022-10-14T17:11:54.960Z,78.93
2022-10-14T17:14:24.354Z,79.04
2022-10-14T17:16:53.574Z,79.51
2022-10-14T17:19:24.269Z,79.75
2022-10-14T17:21:52.346Z,79.63
2022-10-14T17:24:20.213Z,80.29
2022-10-14T17:26:48.331Z,80.56
2022-10-14T17:29:16.385Z,80.95
2022-10-14T17:31:44.972Z,81.25
2022-10-14T17:34:14.358Z,81.53
2022-10-14T17:36:42.630Z,81.35
2022-10-14T17:39:21.284Z,81.98
2022-10-14T17:41:55.734Z,82.28
2022-10-14T17:44:23.743Z,82.52
2022-10-14T17:46:53.356Z,82.82
2022-10-14T17:49:22.812Z,83.19
2022-10-14T17:51:50.793Z,83.39
2022-10-14T17:54:18.625Z,83.76
2022-10-14T17:56:46.686Z,84.37
2022-10-14T17:59:14.684Z,84.63
2022-10-14T18:02:01.451Z,84.75
2022-10-14T18:04:33.400Z,84.88
2022-10-14T18:07:01.395Z,85.47
2022-10-14T18:09:29.281Z,85.83
2022-10-14T18:12:13.421Z,85.77
2022-10-14T18:14:42.263Z,86.26
2022-10-14T18:17:12.998Z,86.26
2022-10-14T18:19:51.143Z,86.75
2022-10-14T18:22:20.604Z,86.61
2022-10-14T18:24:48.406Z,87.11
2022-10-14T18:27:16.342Z,87.28
2022-10-14T18:29:44.422Z,87.45
2022-10-14T18:32:12.263Z,87.98
2022-10-14T18:34:40.112Z,88.14
2022-10-14T18:37:09.666Z,88.87
2022-10-14T18:39:37.784Z,89.17
2022-10-14T18:42:07.459Z,88.98
2022-10-14T18:44:35.543Z,89.09
2022-10-14T18:47:03.350Z,89.32
2022-10-14T18:49:38.166Z,89.92
2022-10-14T18:52:10.620Z,89.77
2022-10-14T18:54:43.260Z,90.31
2022-10-14T18:57:15.062Z,90.21
2022-10-14T18:59:45.494Z,90.35
2022-10-14T19:02:14.841Z,90.63
2022-10-14T19:04:42.787Z,90.72
2022-10-14T19:07:12.005Z,91.32
2022-10-14T19:09:39.947Z,92.07
2022-10-14T19:12:22.226Z,92.13
2022-10-14T19:14:50.500Z,92.32
2022-10-14T19:17:18.337Z,92.53
2022-10-14T19:19:46.243Z,92.79
2022-10-14T19:22:15.860Z,92.98
2022-10-14T19:24:43.818Z,93.29
2022-10-14T19:27:12.012Z,93.51
2022-10-14T19:29:40.041Z,93.83
2022-10-14T19:32:07.947Z,94.04
2022-10-14T19:34:35.880Z,93.80
2022-10-14T19:37:03.854Z,94.08
2022-10-14T19:39:33.066Z,94.47
2022-10-14T19:42:00.985Z,94.92
2022-10-14T19:44:28.999Z,95.33
2022-10-14T19:46:56.886Z,95.26
2022-10-14T19:49:24.818Z,95.52
2022-10-14T19:51:52.740Z,95.77
2022-10-14T19:54:20.574Z,95.57
2022-10-14T19:56:49.972Z,95.58
2022-10-14T19:59:17.966Z,95.98
2022-10-14T20:01:45.917Z,96.04
2022-10-14T20:04:13.977Z,95.89
2022-10-14T20:06:43.129Z,95.67
2022-10-14T20:09:13.639Z,95.87
2022-10-14T20:11:41.948Z,95.99
2022-10-14T20:14:11.397Z,96.33
2022-10-14T20:16:39.229Z,96.40
2022-10-14T20:19:07.121Z,96.56
2022-10-14T20:21:35.022Z,96.89
2022-10-14T20:24:02.882Z,96.74
2022-10-14T20:26:31.062Z,97.19
2022-10-14T20:28:59.519Z,97.57
2022-10-14T20:31:28.839Z,97.70
2022-10-14T20:33:57.756Z,97.91
2022-10-14T20:36:25.907Z,98.20
2022-10-14T20:38:53.756Z,98.65
2022-10-14T20:41:23.258Z,99.08
2022-10-14T20:43:51.516Z,99.11
2022-10-14T20:46:21.850Z,99.48
2022-10-14T20:48:55.132Z,99.38
2022-10-14T20:51:23.667Z,99.37
2022-10-14T20:53:52.782Z,99.53
2022-10-14T20:56:22.464Z,99.59
2022-10-14T20:58:55.157Z,99.94
2022-10-14T21:01:23.670Z,100.00
2022-10-14T21:03:53.559Z,100.00
2022-10-14T21:06:23.351Z,100.00
2022-10-14T21:08:52.917Z,100.00
2022-10-14T21:11:23.450Z,100.00
2022-10-14T21:13:53.724Z,100.00
2022-10-14T21:16:23.950Z,100.00
2022-10-14T21:18:57.853Z,100.00
2022-10-14T21:21:27.680Z,100.00
2022-10-14T21:23:56.168Z,100.00
2022-10-14T21:26:25.308Z,100.00
2022-10-14T21:28:53.582Z,100.00
2022-10-14T21:31:21.641Z,100.00
2022-10-14T21:33:54.838Z,100.00
2022-10-14T21:36:24.471Z,100.00
2022-10-14T21:38:52.862Z,100.00
2022-10-14T21:41:20.937Z,100.00
2022-10-14T21:43:48.898Z,100.00
2022-10-14T21:46:17.611Z,100.00
2022-10-14T21:48:46.478Z,100.00
2022-10-14T21:51:16.735Z,100.00
2022-10-14T21:53:47.625Z,100.00
2022-10-14T21:56:16.928Z,100.00
2022-10-14T21:58:45.526Z,100.00
2022-10-14T22:01:16.207Z,100.00
2022-10-14T22:03:44.839Z,100.00
2022-10-14T22:06:15.140Z,100.00
2022-10-14T22:08:46.144Z,100.00
2022-10-14T22:11:17.253Z,100.00
2022-10-14T22:13:45.624Z,100.00
2022-10-14T22:16:14.183Z,100.00
2022-10-14T22:18:44.860Z,100.00
2022-10-14T22:21:12.832Z,100.00
2022-10-14T22:23:41.009Z,100.00
2022-10-14T22:26:12.929Z,100.00
2022-10-14T22:28:41.484Z,100.00
2022-10-14T22:31:11.748Z,100.00
2022-10-14T22:33:41.119Z,100.00
2022-10-14T22:36:10.458Z,100.00
2022-10-14T22:38:39.390Z,100.00
2022-10-14T22:41:08.206Z,100.00
2022-10-14T22:43:38.563Z,100.00
2022-10-14T22:46:08.716Z,100.00
2022-10-14T22:48:37.351Z,100.00
2022-10-14T22:51:07.172Z,100.00
2022-10-14T22:53:35.949Z,100.00
2022-10-14T22:56:04.665Z,100.00
2022-10-14T22:58:33.046Z,100.00
2022-10-14T23:01:08.486Z,100.00
2022-10-14T23:03:37.034Z,100.00
2022-10-14T23:06:06.615Z,100.00
2022-10-14T23:08:35.465Z,100.00
2022-10-14T23:11:04.710Z,100.00
2022-10-14T23:13:33.346Z,100.00
2022-10-14T23:16:03.120Z,100.00
2022-10-14T23:18:34.703Z,100.00
2022-10-14T23:21:09.090Z,100.00
2022-10-14T23:23:37.292Z,100.00
2022-10-14T23:26:05.277Z,100.00
2022-10-14T23:28:33.230Z,100.00
2022-10-14T23:31:01.231Z,100.00
2022-10-14T23:33:29.276Z,100.00
2022-10-14T23:36:04.362Z,100.00
2022-10-14T23:38:32.461Z,100.00
2022-10-14T23:41:02.641Z,100.00
2022-10-14T23:43:31.441Z,100.00
2022-10-14T23:45:59.900Z,100.00
2022-10-14T23:48:28.135Z,100.00
2022-10-14T23:50:56.719Z,100.00
2022-10-14T23:53:26.920Z,100.00
2022-10-14T23:55:55.560Z,100.00
2022-10-14T23:58:23.618Z,100.00
